Strona główna
METAR-TAF:

METAR-TAF

Lotnisko :

Port lotniczy Ajaccio-Campo dell'Oro

Ajaccio, Francja

Szerokość geograficzna: 41-55N, Długość geograficzna: 008-48E, wysokość: 6 m

Aktualna obserwacja pogody

Raport powstał 10 minut temu, godzina 08:00 UTC
Wiatr 5 kt od południowy zachód
Temperatura 22°C
Wilgotność 53%
Ciśnienie 1025 hPa
Widzialność 10 km lub więcej
Brak chmur poniżej 1500 m i brak chmur cumulonimbus

METAR: LFKJ 280800Z AUTO 23005KT CAVOK 22/12 Q1025 NOSIG

czas: 10:10 (08:10 UTC)

Prognoza

Raport powstał 6 godziny i 10 minut temu, godzina 02:00 UTC
Prognoza ważna od 28 godzina 03 UTC do 29 godzina 03 UTC
Wiatr 5 kt od wschodnio-północny wschód
Widzialność 10 km lub więcej
Brak chmur poniżej 1500 m i brak chmur cumulonimbus
Stopniowe zmiany
od 28 godzina 10 UTC do 28 godzina 12 UTC
Wiatr 10 kt od zachodnio-południowy zachód
Stopniowe zmiany
od 28 godzina 18 UTC do 28 godzina 20 UTC
Wiatr 5 kt od wschodnio-północny wschód

TAF: LFKJ 280200Z 2803/2903 06005KT CAVOK BECMG 2810/2812 24010KT BECMG 2818/2820 06005KT

Obserwacja i prognoza pogody dla ponad 4000 lotnisk (raport METAR i TAF).

Dostępne stacje oznaczono żółtymi i czerwonymi punktami na mapie.

Najedź kursorem aby zobaczyć nazwę stacji.

Kliknij aby zobaczyć obserwacje i prognozy pogody.

Aby zmienić mapę: kliknij na zielony przycisk z czarnym krzyżykiem, aby powiększyć; na zielony przycisk z myślnikiem, aby pomniejszyć; na zielone strzałki, aby przejść do map sąsiednich.


METAR-TAF: